Perkins, West Virginia
Current Conditions -  °F | °C
As of 6:15 PM on Saturday 25 Oct 2014 (Local Time) from KW22 Reporting Station
Scattered Clouds Scattered Clouds  
Wind Chill: 61°   Ceiling: Unl
Heat Index: 61°   Visibility: 10mi
Dew Point: 46°   Wind: 10mph
Humidity: 59%   Direction: 220°SW
Pressure: 29.86"   Gusts: 17mph
Location:  38.78°N, 80.93°W
Report Text: KW22 252215Z AUTO 22009G15KT 10SM SCT032 16/08 A2986 RMK AO2
Loading
Personal Weather Stations






























Interactive Weather Map
Tropical Storm Tracking
New forecast layout! Learn more

10-Day Weather Forecast

Advertisements
Track Severe Weather on mobile